sensor_id;sensor_type;location;lat;lon;timestamp;P1;durP1;ratioP1;P2;durP2;ratioP2
13079;SDS011;6606;49.154;9.280;2023-03-23T00:00:16;1.50;;;1.10;;
13079;SDS011;6606;49.154;9.280;2023-03-23T00:02:59;2.63;;;1.20;;
13079;SDS011;6606;49.154;9.280;2023-03-23T00:05:41;1.73;;;1.20;;
13079;SDS011;6606;49.154;9.280;2023-03-23T00:08:30;1.63;;;1.23;;
13079;SDS011;6606;49.154;9.280;2023-03-23T00:11:14;2.20;;;1.23;;
13079;SDS011;6606;49.154;9.280;2023-03-23T00:13:59;1.93;;;1.20;;
13079;SDS011;6606;49.154;9.280;2023-03-23T00:16:42;1.83;;;1.20;;
13079;SDS011;6606;49.154;9.280;2023-03-23T00:19:25;1.47;;;1.20;;
13079;SDS011;6606;49.154;9.280;2023-03-23T00:22:07;2.53;;;1.20;;
13079;SDS011;6606;49.154;9.280;2023-03-23T00:24:48;2.77;;;1.50;;
13079;SDS011;6606;49.154;9.280;2023-03-23T00:27:32;1.93;;;1.07;;
13079;SDS011;6606;49.154;9.280;2023-03-23T00:30:15;1.13;;;1.00;;
13079;SDS011;6606;49.154;9.280;2023-03-23T00:32:57;4.13;;;1.10;;
13079;SDS011;6606;49.154;9.280;2023-03-23T00:35:40;1.20;;;1.10;;
13079;SDS011;6606;49.154;9.280;2023-03-23T00:38:24;1.10;;;1.00;;
13079;SDS011;6606;49.154;9.280;2023-03-23T00:41:07;2.47;;;1.20;;
13079;SDS011;6606;49.154;9.280;2023-03-23T00:43:53;1.60;;;1.33;;
13079;SDS011;6606;49.154;9.280;2023-03-23T00:46:35;1.80;;;1.20;;
13079;SDS011;6606;49.154;9.280;2023-03-23T00:49:25;1.77;;;1.10;;
13079;SDS011;6606;49.154;9.280;2023-03-23T00:52:09;1.73;;;1.10;;
13079;SDS011;6606;49.154;9.280;2023-03-23T00:54:52;1.63;;;1.10;;
13079;SDS011;6606;49.154;9.280;2023-03-23T00:57:34;1.50;;;1.10;;
13079;SDS011;6606;49.154;9.280;2023-03-23T01:00:17;1.20;;;1.10;;
13079;SDS011;6606;49.154;9.280;2023-03-23T01:03:00;1.77;;;1.20;;
13079;SDS011;6606;49.154;9.280;2023-03-23T01:05:42;2.00;;;1.23;;
13079;SDS011;6606;49.154;9.280;2023-03-23T01:08:24;1.83;;;1.30;;
13079;SDS011;6606;49.154;9.280;2023-03-23T01:11:06;1.47;;;1.07;;
13079;SDS011;6606;49.154;9.280;2023-03-23T01:13:48;1.70;;;1.20;;
13079;SDS011;6606;49.154;9.280;2023-03-23T01:16:31;3.60;;;1.20;;
13079;SDS011;6606;49.154;9.280;2023-03-23T01:19:13;1.20;;;1.10;;
13079;SDS011;6606;49.154;9.280;2023-03-23T01:21:55;2.00;;;1.17;;
13079;SDS011;6606;49.154;9.280;2023-03-23T01:24:37;3.60;;;1.50;;
13079;SDS011;6606;49.154;9.280;2023-03-23T01:27:20;2.07;;;1.37;;
13079;SDS011;6606;49.154;9.280;2023-03-23T01:30:02;2.57;;;1.23;;
13079;SDS011;6606;49.154;9.280;2023-03-23T01:32:46;2.17;;;1.20;;
13079;SDS011;6606;49.154;9.280;2023-03-23T01:35:31;1.80;;;1.33;;
13079;SDS011;6606;49.154;9.280;2023-03-23T01:38:13;1.93;;;1.30;;
13079;SDS011;6606;49.154;9.280;2023-03-23T01:40:55;1.87;;;1.20;;
13079;SDS011;6606;49.154;9.280;2023-03-23T01:46:43;2.10;;;1.40;;
13079;SDS011;6606;49.154;9.280;2023-03-23T01:49:27;2.13;;;1.13;;
13079;SDS011;6606;49.154;9.280;2023-03-23T01:52:13;1.40;;;1.30;;
13079;SDS011;6606;49.154;9.280;2023-03-23T01:54:59;2.33;;;1.30;;
13079;SDS011;6606;49.154;9.280;2023-03-23T01:57:42;2.20;;;1.30;;
13079;SDS011;6606;49.154;9.280;2023-03-23T02:00:31;1.90;;;1.27;;
13079;SDS011;6606;49.154;9.280;2023-03-23T02:03:13;1.70;;;1.17;;
13079;SDS011;6606;49.154;9.280;2023-03-23T02:06:00;1.87;;;1.50;;
13079;SDS011;6606;49.154;9.280;2023-03-23T02:09:02;1.73;;;1.20;;
13079;SDS011;6606;49.154;9.280;2023-03-23T02:11:46;1.63;;;1.10;;
13079;SDS011;6606;49.154;9.280;2023-03-23T02:14:32;2.30;;;1.30;;
13079;SDS011;6606;49.154;9.280;2023-03-23T02:17:18;3.23;;;1.30;;
13079;SDS011;6606;49.154;9.280;2023-03-23T02:20:13;2.47;;;1.30;;
13079;SDS011;6606;49.154;9.280;2023-03-23T02:23:21;1.70;;;1.30;;
13079;SDS011;6606;49.154;9.280;2023-03-23T02:26:25;2.83;;;1.17;;
13079;SDS011;6606;49.154;9.280;2023-03-23T02:29:25;3.83;;;1.60;;
13079;SDS011;6606;49.154;9.280;2023-03-23T02:32:37;4.10;;;1.53;;
13079;SDS011;6606;49.154;9.280;2023-03-23T02:35:41;2.13;;;1.50;;
13079;SDS011;6606;49.154;9.280;2023-03-23T02:38:32;1.70;;;1.23;;
13079;SDS011;6606;49.154;9.280;2023-03-23T02:41:19;2.03;;;1.50;;
13079;SDS011;6606;49.154;9.280;2023-03-23T02:44:05;1.97;;;1.40;;
13079;SDS011;6606;49.154;9.280;2023-03-23T02:46:51;1.70;;;1.30;;
13079;SDS011;6606;49.154;9.280;2023-03-23T02:49:35;2.80;;;1.60;;
13079;SDS011;6606;49.154;9.280;2023-03-23T02:52:23;2.33;;;1.60;;
13079;SDS011;6606;49.154;9.280;2023-03-23T02:55:09;1.97;;;1.53;;
13079;SDS011;6606;49.154;9.280;2023-03-23T02:57:54;2.00;;;1.50;;
13079;SDS011;6606;49.154;9.280;2023-03-23T03:00:37;2.40;;;1.50;;
13079;SDS011;6606;49.154;9.280;2023-03-23T03:03:20;2.13;;;1.50;;
13079;SDS011;6606;49.154;9.280;2023-03-23T03:06:06;2.60;;;1.50;;
13079;SDS011;6606;49.154;9.280;2023-03-23T03:08:57;3.17;;;1.63;;
13079;SDS011;6606;49.154;9.280;2023-03-23T03:11:45;4.67;;;1.60;;
13079;SDS011;6606;49.154;9.280;2023-03-23T03:14:33;2.97;;;1.60;;
13079;SDS011;6606;49.154;9.280;2023-03-23T03:17:24;1.80;;;1.43;;
13079;SDS011;6606;49.154;9.280;2023-03-23T03:20:07;3.63;;;1.50;;
13079;SDS011;6606;49.154;9.280;2023-03-23T03:22:52;2.60;;;1.40;;
13079;SDS011;6606;49.154;9.280;2023-03-23T03:25:36;4.77;;;1.70;;
13079;SDS011;6606;49.154;9.280;2023-03-23T03:28:22;3.20;;;1.50;;
13079;SDS011;6606;49.154;9.280;2023-03-23T03:31:06;3.27;;;1.57;;
13079;SDS011;6606;49.154;9.280;2023-03-23T03:33:49;2.33;;;1.63;;
13079;SDS011;6606;49.154;9.280;2023-03-23T03:36:33;1.90;;;1.50;;
13079;SDS011;6606;49.154;9.280;2023-03-23T03:39:20;2.93;;;1.50;;
13079;SDS011;6606;49.154;9.280;2023-03-23T03:42:04;3.10;;;1.47;;
13079;SDS011;6606;49.154;9.280;2023-03-23T03:44:47;2.27;;;1.70;;
13079;SDS011;6606;49.154;9.280;2023-03-23T03:47:31;2.97;;;1.70;;
13079;SDS011;6606;49.154;9.280;2023-03-23T03:50:13;3.60;;;1.50;;
13079;SDS011;6606;49.154;9.280;2023-03-23T03:52:57;2.07;;;1.60;;
13079;SDS011;6606;49.154;9.280;2023-03-23T03:55:40;2.50;;;1.37;;
13079;SDS011;6606;49.154;9.280;2023-03-23T03:58:30;2.20;;;1.53;;
13079;SDS011;6606;49.154;9.280;2023-03-23T04:01:24;1.77;;;1.60;;
13079;SDS011;6606;49.154;9.280;2023-03-23T04:04:06;1.90;;;1.70;;
13079;SDS011;6606;49.154;9.280;2023-03-23T04:06:50;2.63;;;1.80;;
13079;SDS011;6606;49.154;9.280;2023-03-23T04:09:32;2.57;;;1.43;;
13079;SDS011;6606;49.154;9.280;2023-03-23T04:12:15;3.17;;;1.63;;
13079;SDS011;6606;49.154;9.280;2023-03-23T04:15:22;2.37;;;1.40;;
13079;SDS011;6606;49.154;9.280;2023-03-23T04:18:05;3.77;;;1.60;;
13079;SDS011;6606;49.154;9.280;2023-03-23T04:20:49;2.30;;;1.67;;
13079;SDS011;6606;49.154;9.280;2023-03-23T04:23:36;2.27;;;1.50;;
13079;SDS011;6606;49.154;9.280;2023-03-23T04:26:20;2.63;;;1.63;;
13079;SDS011;6606;49.154;9.280;2023-03-23T04:29:08;3.30;;;1.70;;
13079;SDS011;6606;49.154;9.280;2023-03-23T04:31:51;2.13;;;1.53;;
13079;SDS011;6606;49.154;9.280;2023-03-23T04:34:51;2.67;;;1.67;;
13079;SDS011;6606;49.154;9.280;2023-03-23T04:37:37;2.83;;;1.40;;
13079;SDS011;6606;49.154;9.280;2023-03-23T04:40:21;2.47;;;1.77;;
13079;SDS011;6606;49.154;9.280;2023-03-23T04:43:23;1.83;;;1.50;;
13079;SDS011;6606;49.154;9.280;2023-03-23T04:46:18;2.67;;;1.63;;
13079;SDS011;6606;49.154;9.280;2023-03-23T04:49:03;3.50;;;1.60;;
13079;SDS011;6606;49.154;9.280;2023-03-23T04:51:50;1.63;;;1.50;;
13079;SDS011;6606;49.154;9.280;2023-03-23T04:54:56;2.27;;;1.57;;
13079;SDS011;6606;49.154;9.280;2023-03-23T04:57:40;3.43;;;1.70;;
13079;SDS011;6606;49.154;9.280;2023-03-23T05:00:49;2.17;;;1.67;;
13079;SDS011;6606;49.154;9.280;2023-03-23T05:03:33;3.67;;;1.40;;
13079;SDS011;6606;49.154;9.280;2023-03-23T05:06:19;1.83;;;1.50;;
13079;SDS011;6606;49.154;9.280;2023-03-23T05:09:08;3.57;;;1.70;;
13079;SDS011;6606;49.154;9.280;2023-03-23T05:11:51;3.53;;;1.73;;
13079;SDS011;6606;49.154;9.280;2023-03-23T05:14:33;3.67;;;1.60;;
13079;SDS011;6606;49.154;9.280;2023-03-23T05:17:20;3.47;;;2.00;;
13079;SDS011;6606;49.154;9.280;2023-03-23T05:20:06;1.57;;;1.47;;
13079;SDS011;6606;49.154;9.280;2023-03-23T05:22:58;2.20;;;1.50;;
13079;SDS011;6606;49.154;9.280;2023-03-23T05:25:52;3.17;;;1.97;;
13079;SDS011;6606;49.154;9.280;2023-03-23T05:28:34;1.43;;;1.33;;
13079;SDS011;6606;49.154;9.280;2023-03-23T05:31:32;3.23;;;1.80;;
13079;SDS011;6606;49.154;9.280;2023-03-23T05:34:14;2.60;;;1.60;;
13079;SDS011;6606;49.154;9.280;2023-03-23T05:37:03;2.10;;;1.50;;
13079;SDS011;6606;49.154;9.280;2023-03-23T05:39:58;2.07;;;1.60;;
13079;SDS011;6606;49.154;9.280;2023-03-23T05:42:51;2.57;;;1.60;;
13079;SDS011;6606;49.154;9.280;2023-03-23T05:45:42;2.00;;;1.60;;
13079;SDS011;6606;49.154;9.280;2023-03-23T05:48:25;3.50;;;1.60;;
13079;SDS011;6606;49.154;9.280;2023-03-23T05:51:07;2.63;;;1.60;;
13079;SDS011;6606;49.154;9.280;2023-03-23T05:53:53;3.20;;;1.70;;
13079;SDS011;6606;49.154;9.280;2023-03-23T05:56:37;2.00;;;1.70;;
13079;SDS011;6606;49.154;9.280;2023-03-23T05:59:29;2.47;;;1.43;;
13079;SDS011;6606;49.154;9.280;2023-03-23T06:02:13;3.10;;;1.63;;
13079;SDS011;6606;49.154;9.280;2023-03-23T06:04:55;2.43;;;1.53;;
13079;SDS011;6606;49.154;9.280;2023-03-23T06:07:44;1.83;;;1.50;;
13079;SDS011;6606;49.154;9.280;2023-03-23T06:10:26;3.93;;;1.87;;
13079;SDS011;6606;49.154;9.280;2023-03-23T06:13:14;5.17;;;1.60;;
13079;SDS011;6606;49.154;9.280;2023-03-23T06:15:59;3.17;;;1.70;;
13079;SDS011;6606;49.154;9.280;2023-03-23T06:19:10;4.93;;;2.00;;
13079;SDS011;6606;49.154;9.280;2023-03-23T06:21:59;2.73;;;1.70;;
13079;SDS011;6606;49.154;9.280;2023-03-23T06:25:00;2.73;;;1.87;;
13079;SDS011;6606;49.154;9.280;2023-03-23T06:27:49;2.00;;;1.47;;
13079;SDS011;6606;49.154;9.280;2023-03-23T06:30:33;2.00;;;1.50;;
13079;SDS011;6606;49.154;9.280;2023-03-23T06:33:15;2.30;;;1.70;;
13079;SDS011;6606;49.154;9.280;2023-03-23T06:36:22;4.57;;;1.60;;
13079;SDS011;6606;49.154;9.280;2023-03-23T06:39:24;3.57;;;1.60;;
13079;SDS011;6606;49.154;9.280;2023-03-23T06:42:29;2.67;;;1.67;;
13079;SDS011;6606;49.154;9.280;2023-03-23T06:45:29;4.17;;;1.60;;
13079;SDS011;6606;49.154;9.280;2023-03-23T06:48:32;7.03;;;1.97;;
13079;SDS011;6606;49.154;9.280;2023-03-23T06:51:14;3.33;;;1.60;;
13079;SDS011;6606;49.154;9.280;2023-03-23T06:54:01;2.53;;;1.90;;
13079;SDS011;6606;49.154;9.280;2023-03-23T06:56:46;5.43;;;1.90;;
13079;SDS011;6606;49.154;9.280;2023-03-23T06:59:28;3.00;;;1.67;;
13079;SDS011;6606;49.154;9.280;2023-03-23T07:02:10;2.87;;;1.83;;
13079;SDS011;6606;49.154;9.280;2023-03-23T07:04:56;3.20;;;1.67;;
13079;SDS011;6606;49.154;9.280;2023-03-23T07:07:39;2.13;;;1.40;;
13079;SDS011;6606;49.154;9.280;2023-03-23T07:10:34;2.20;;;1.67;;
13079;SDS011;6606;49.154;9.280;2023-03-23T07:13:18;2.70;;;1.60;;
13079;SDS011;6606;49.154;9.280;2023-03-23T07:16:05;3.43;;;1.60;;
13079;SDS011;6606;49.154;9.280;2023-03-23T07:18:49;2.90;;;1.63;;
13079;SDS011;6606;49.154;9.280;2023-03-23T07:21:32;2.90;;;1.60;;
13079;SDS011;6606;49.154;9.280;2023-03-23T07:24:14;3.50;;;1.57;;
13079;SDS011;6606;49.154;9.280;2023-03-23T07:27:20;4.33;;;2.10;;
13079;SDS011;6606;49.154;9.280;2023-03-23T07:30:06;4.80;;;1.80;;
13079;SDS011;6606;49.154;9.280;2023-03-23T07:32:49;4.23;;;1.70;;
13079;SDS011;6606;49.154;9.280;2023-03-23T07:35:32;3.23;;;1.70;;
13079;SDS011;6606;49.154;9.280;2023-03-23T07:38:19;4.13;;;1.70;;
13079;SDS011;6606;49.154;9.280;2023-03-23T07:41:03;2.63;;;1.70;;
13079;SDS011;6606;49.154;9.280;2023-03-23T07:43:46;2.90;;;1.80;;
13079;SDS011;6606;49.154;9.280;2023-03-23T07:46:36;2.83;;;1.83;;
13079;SDS011;6606;49.154;9.280;2023-03-23T07:49:26;3.53;;;1.90;;
13079;SDS011;6606;49.154;9.280;2023-03-23T07:52:17;5.30;;;2.03;;
13079;SDS011;6606;49.154;9.280;2023-03-23T07:55:02;5.83;;;1.70;;
13079;SDS011;6606;49.154;9.280;2023-03-23T07:57:53;4.30;;;1.65;;
13079;SDS011;6606;49.154;9.280;2023-03-23T08:00:35;2.75;;;1.90;;
13079;SDS011;6606;49.154;9.280;2023-03-23T08:03:20;2.00;;;1.65;;
13079;SDS011;6606;49.154;9.280;2023-03-23T08:06:11;2.63;;;1.80;;
13079;SDS011;6606;49.154;9.280;2023-03-23T08:09:28;3.00;;;1.85;;
13079;SDS011;6606;49.154;9.280;2023-03-23T08:12:38;5.30;;;2.00;;
13079;SDS011;6606;49.154;9.280;2023-03-23T08:15:36;3.47;;;1.98;;
13079;SDS011;6606;49.154;9.280;2023-03-23T08:18:27;4.57;;;1.60;;
13079;SDS011;6606;49.154;9.280;2023-03-23T08:21:27;2.92;;;2.00;;
13079;SDS011;6606;49.154;9.280;2023-03-23T08:24:26;4.00;;;1.60;;
13079;SDS011;6606;49.154;9.280;2023-03-23T08:27:26;4.05;;;1.80;;
13079;SDS011;6606;49.154;9.280;2023-03-23T08:30:28;3.42;;;2.00;;
13079;SDS011;6606;49.154;9.280;2023-03-23T08:33:39;4.72;;;1.80;;
13079;SDS011;6606;49.154;9.280;2023-03-23T08:36:40;2.25;;;1.65;;
13079;SDS011;6606;49.154;9.280;2023-03-23T08:39:32;3.50;;;1.80;;
13079;SDS011;6606;49.154;9.280;2023-03-23T08:42:33;2.67;;;1.55;;
13079;SDS011;6606;49.154;9.280;2023-03-23T08:45:45;2.55;;;2.03;;
13079;SDS011;6606;49.154;9.280;2023-03-23T08:48:28;2.63;;;1.70;;
13079;SDS011;6606;49.154;9.280;2023-03-23T08:51:35;1.92;;;1.30;;
13079;SDS011;6606;49.154;9.280;2023-03-23T08:54:43;2.65;;;1.40;;
13079;SDS011;6606;49.154;9.280;2023-03-23T08:57:48;3.83;;;1.77;;
13079;SDS011;6606;49.154;9.280;2023-03-23T09:00:52;2.30;;;1.60;;
13079;SDS011;6606;49.154;9.280;2023-03-23T09:03:44;1.80;;;1.50;;
13079;SDS011;6606;49.154;9.280;2023-03-23T09:06:46;3.70;;;1.50;;
13079;SDS011;6606;49.154;9.280;2023-03-23T09:09:28;2.60;;;1.50;;
13079;SDS011;6606;49.154;9.280;2023-03-23T09:12:10;1.75;;;1.40;;
13079;SDS011;6606;49.154;9.280;2023-03-23T09:14:52;3.72;;;1.70;;
13079;SDS011;6606;49.154;9.280;2023-03-23T09:17:35;2.95;;;1.70;;
13079;SDS011;6606;49.154;9.280;2023-03-23T09:20:19;2.65;;;1.77;;
13079;SDS011;6606;49.154;9.280;2023-03-23T09:23:02;3.42;;;1.63;;
13079;SDS011;6606;49.154;9.280;2023-03-23T09:25:45;2.47;;;1.70;;
13079;SDS011;6606;49.154;9.280;2023-03-23T09:28:27;2.72;;;1.63;;
13079;SDS011;6606;49.154;9.280;2023-03-23T09:31:11;2.13;;;1.70;;
13079;SDS011;6606;49.154;9.280;2023-03-23T09:33:55;3.25;;;2.40;;
13079;SDS011;6606;49.154;9.280;2023-03-23T09:36:37;4.40;;;2.10;;
13079;SDS011;6606;49.154;9.280;2023-03-23T09:39:19;2.63;;;1.70;;
13079;SDS011;6606;49.154;9.280;2023-03-23T09:42:08;3.17;;;2.13;;
13079;SDS011;6606;49.154;9.280;2023-03-23T09:45:02;2.92;;;1.90;;
13079;SDS011;6606;49.154;9.280;2023-03-23T09:47:55;2.72;;;1.90;;
13079;SDS011;6606;49.154;9.280;2023-03-23T09:50:46;3.65;;;2.10;;
13079;SDS011;6606;49.154;9.280;2023-03-23T09:53:34;2.40;;;1.65;;
13079;SDS011;6606;49.154;9.280;2023-03-23T09:56:19;3.33;;;2.05;;
13079;SDS011;6606;49.154;9.280;2023-03-23T09:59:04;5.68;;;1.98;;
13079;SDS011;6606;49.154;9.280;2023-03-23T10:01:55;2.60;;;1.65;;
13079;SDS011;6606;49.154;9.280;2023-03-23T10:04:43;3.50;;;1.45;;
13079;SDS011;6606;49.154;9.280;2023-03-23T10:07:28;3.50;;;1.70;;
13079;SDS011;6606;49.154;9.280;2023-03-23T10:10:12;5.00;;;1.80;;
13079;SDS011;6606;49.154;9.280;2023-03-23T10:12:56;4.00;;;1.67;;
13079;SDS011;6606;49.154;9.280;2023-03-23T10:15:43;3.38;;;1.77;;
13079;SDS011;6606;49.154;9.280;2023-03-23T10:18:29;2.38;;;1.85;;
13079;SDS011;6606;49.154;9.280;2023-03-23T10:21:19;2.92;;;1.65;;
13079;SDS011;6606;49.154;9.280;2023-03-23T10:24:04;2.72;;;1.73;;
13079;SDS011;6606;49.154;9.280;2023-03-23T10:26:53;4.30;;;1.88;;
13079;SDS011;6606;49.154;9.280;2023-03-23T10:29:40;1.70;;;1.60;;
13079;SDS011;6606;49.154;9.280;2023-03-23T10:32:37;4.63;;;1.80;;
13079;SDS011;6606;49.154;9.280;2023-03-23T10:35:24;2.25;;;1.70;;
13079;SDS011;6606;49.154;9.280;2023-03-23T10:38:11;2.25;;;1.70;;
13079;SDS011;6606;49.154;9.280;2023-03-23T10:40:58;4.43;;;1.95;;
13079;SDS011;6606;49.154;9.280;2023-03-23T10:43:45;2.15;;;1.60;;
13079;SDS011;6606;49.154;9.280;2023-03-23T10:46:31;3.08;;;1.80;;
13079;SDS011;6606;49.154;9.280;2023-03-23T10:49:28;5.07;;;1.77;;
13079;SDS011;6606;49.154;9.280;2023-03-23T10:52:19;2.58;;;1.70;;
13079;SDS011;6606;49.154;9.280;2023-03-23T10:55:08;1.85;;;1.45;;
13079;SDS011;6606;49.154;9.280;2023-03-23T10:58:00;2.70;;;1.65;;
13079;SDS011;6606;49.154;9.280;2023-03-23T11:00:43;3.25;;;1.63;;
13079;SDS011;6606;49.154;9.280;2023-03-23T11:06:32;2.33;;;1.60;;
13079;SDS011;6606;49.154;9.280;2023-03-23T11:09:16;3.20;;;1.70;;
13079;SDS011;6606;49.154;9.280;2023-03-23T11:11:59;2.08;;;1.55;;
13079;SDS011;6606;49.154;9.280;2023-03-23T11:14:44;4.47;;;1.50;;
13079;SDS011;6606;49.154;9.280;2023-03-23T11:17:26;1.80;;;1.35;;
13079;SDS011;6606;49.154;9.280;2023-03-23T11:20:12;1.95;;;1.30;;
13079;SDS011;6606;49.154;9.280;2023-03-23T11:22:55;4.57;;;1.50;;
13079;SDS011;6606;49.154;9.280;2023-03-23T11:25:50;1.92;;;1.23;;
13079;SDS011;6606;49.154;9.280;2023-03-23T11:28:36;1.75;;;1.38;;
13079;SDS011;6606;49.154;9.280;2023-03-23T11:31:32;3.47;;;1.60;;
13079;SDS011;6606;49.154;9.280;2023-03-23T11:34:17;2.17;;;1.33;;
13079;SDS011;6606;49.154;9.280;2023-03-23T11:37:03;2.67;;;1.50;;
13079;SDS011;6606;49.154;9.280;2023-03-23T11:39:53;2.33;;;1.50;;
13079;SDS011;6606;49.154;9.280;2023-03-23T11:42:37;1.90;;;1.50;;
13079;SDS011;6606;49.154;9.280;2023-03-23T11:45:25;2.95;;;1.40;;
13079;SDS011;6606;49.154;9.280;2023-03-23T11:48:18;4.20;;;1.48;;
13079;SDS011;6606;49.154;9.280;2023-03-23T11:51:06;1.73;;;1.42;;
13079;SDS011;6606;49.154;9.280;2023-03-23T11:53:55;2.15;;;1.60;;
13079;SDS011;6606;49.154;9.280;2023-03-23T11:56:42;4.40;;;1.70;;
13079;SDS011;6606;49.154;9.280;2023-03-23T11:59:27;3.13;;;1.60;;
13079;SDS011;6606;49.154;9.280;2023-03-23T12:02:21;2.72;;;1.50;;
13079;SDS011;6606;49.154;9.280;2023-03-23T12:05:29;3.50;;;1.88;;
13079;SDS011;6606;49.154;9.280;2023-03-23T12:08:20;3.45;;;1.60;;
13079;SDS011;6606;49.154;9.280;2023-03-23T12:11:15;1.80;;;1.60;;
13079;SDS011;6606;49.154;9.280;2023-03-23T12:14:10;2.63;;;1.52;;
13079;SDS011;6606;49.154;9.280;2023-03-23T12:16:59;3.72;;;1.70;;
13079;SDS011;6606;49.154;9.280;2023-03-23T12:19:50;3.63;;;1.67;;
13079;SDS011;6606;49.154;9.280;2023-03-23T12:22:43;2.30;;;1.70;;
13079;SDS011;6606;49.154;9.280;2023-03-23T12:25:39;2.08;;;1.50;;
13079;SDS011;6606;49.154;9.280;2023-03-23T12:28:38;1.60;;;1.45;;
13079;SDS011;6606;49.154;9.280;2023-03-23T12:31:33;2.30;;;1.67;;
13079;SDS011;6606;49.154;9.280;2023-03-23T12:34:25;3.58;;;1.70;;
13079;SDS011;6606;49.154;9.280;2023-03-23T12:37:22;6.53;;;1.65;;
13079;SDS011;6606;49.154;9.280;2023-03-23T12:40:22;2.25;;;1.80;;
13079;SDS011;6606;49.154;9.280;2023-03-23T12:43:15;2.10;;;1.50;;
13079;SDS011;6606;49.154;9.280;2023-03-23T12:46:13;2.47;;;1.45;;
13079;SDS011;6606;49.154;9.280;2023-03-23T12:49:02;2.03;;;1.75;;
13079;SDS011;6606;49.154;9.280;2023-03-23T12:51:49;2.10;;;1.60;;
13079;SDS011;6606;49.154;9.280;2023-03-23T12:54:38;3.63;;;1.60;;
13079;SDS011;6606;49.154;9.280;2023-03-23T12:57:31;1.95;;;1.60;;
13079;SDS011;6606;49.154;9.280;2023-03-23T13:00:17;4.25;;;1.60;;
13079;SDS011;6606;49.154;9.280;2023-03-23T13:03:05;3.35;;;1.75;;
13079;SDS011;6606;49.154;9.280;2023-03-23T13:05:52;2.28;;;1.60;;
13079;SDS011;6606;49.154;9.280;2023-03-23T13:08:39;3.08;;;1.60;;
13079;SDS011;6606;49.154;9.280;2023-03-23T13:11:27;4.43;;;1.65;;
13079;SDS011;6606;49.154;9.280;2023-03-23T13:14:24;3.83;;;1.80;;
13079;SDS011;6606;49.154;9.280;2023-03-23T13:17:25;2.72;;;1.88;;
13079;SDS011;6606;49.154;9.280;2023-03-23T13:20:18;1.83;;;1.52;;
13079;SDS011;6606;49.154;9.280;2023-03-23T13:23:23;2.47;;;1.77;;
13079;SDS011;6606;49.154;9.280;2023-03-23T13:26:08;2.33;;;1.77;;
13079;SDS011;6606;49.154;9.280;2023-03-23T13:28:56;3.60;;;1.92;;
13079;SDS011;6606;49.154;9.280;2023-03-23T13:31:43;3.13;;;2.33;;
13079;SDS011;6606;49.154;9.280;2023-03-23T13:34:29;2.70;;;1.88;;
13079;SDS011;6606;49.154;9.280;2023-03-23T13:37:19;2.60;;;2.10;;
13079;SDS011;6606;49.154;9.280;2023-03-23T13:40:14;2.40;;;2.10;;
13079;SDS011;6606;49.154;9.280;2023-03-23T13:43:04;3.35;;;2.25;;
13079;SDS011;6606;49.154;9.280;2023-03-23T13:45:47;3.75;;;2.03;;
13079;SDS011;6606;49.154;9.280;2023-03-23T13:48:38;4.93;;;2.00;;
13079;SDS011;6606;49.154;9.280;2023-03-23T13:51:26;2.92;;;2.00;;
13079;SDS011;6606;49.154;9.280;2023-03-23T13:54:19;3.35;;;2.00;;
13079;SDS011;6606;49.154;9.280;2023-03-23T13:57:19;2.60;;;2.17;;
13079;SDS011;6606;49.154;9.280;2023-03-23T14:00:33;2.78;;;2.17;;
13079;SDS011;6606;49.154;9.280;2023-03-23T14:03:24;3.90;;;1.95;;
13079;SDS011;6606;49.154;9.280;2023-03-23T14:06:12;2.38;;;2.00;;
13079;SDS011;6606;49.154;9.280;2023-03-23T14:09:20;2.47;;;2.15;;
13079;SDS011;6606;49.154;9.280;2023-03-23T14:12:13;5.32;;;1.95;;
13079;SDS011;6606;49.154;9.280;2023-03-23T14:14:59;3.20;;;2.00;;
13079;SDS011;6606;49.154;9.280;2023-03-23T14:17:44;2.50;;;1.90;;
13079;SDS011;6606;49.154;9.280;2023-03-23T14:20:29;2.92;;;2.10;;
13079;SDS011;6606;49.154;9.280;2023-03-23T14:23:17;4.25;;;2.20;;
13079;SDS011;6606;49.154;9.280;2023-03-23T14:26:00;4.07;;;2.08;;
13079;SDS011;6606;49.154;9.280;2023-03-23T14:28:49;2.50;;;2.17;;
13079;SDS011;6606;49.154;9.280;2023-03-23T14:31:32;2.90;;;1.80;;
13079;SDS011;6606;49.154;9.280;2023-03-23T14:34:19;3.97;;;2.30;;
13079;SDS011;6606;49.154;9.280;2023-03-23T14:37:03;2.95;;;2.20;;
13079;SDS011;6606;49.154;9.280;2023-03-23T14:39:47;5.05;;;2.05;;
13079;SDS011;6606;49.154;9.280;2023-03-23T14:42:31;4.45;;;2.70;;
13079;SDS011;6606;49.154;9.280;2023-03-23T14:45:15;3.33;;;2.30;;
13079;SDS011;6606;49.154;9.280;2023-03-23T14:47:59;4.40;;;2.83;;
13079;SDS011;6606;49.154;9.280;2023-03-23T14:50:48;3.33;;;2.10;;
13079;SDS011;6606;49.154;9.280;2023-03-23T14:53:32;3.22;;;2.50;;
13079;SDS011;6606;49.154;9.280;2023-03-23T14:56:19;6.28;;;3.10;;
13079;SDS011;6606;49.154;9.280;2023-03-23T14:59:04;5.65;;;2.40;;
13079;SDS011;6606;49.154;9.280;2023-03-23T15:01:47;9.48;;;2.83;;
13079;SDS011;6606;49.154;9.280;2023-03-23T15:04:31;4.38;;;2.80;;
13079;SDS011;6606;49.154;9.280;2023-03-23T15:07:13;5.05;;;2.40;;
13079;SDS011;6606;49.154;9.280;2023-03-23T15:09:57;6.03;;;2.47;;
13079;SDS011;6606;49.154;9.280;2023-03-23T15:12:42;3.92;;;2.20;;
13079;SDS011;6606;49.154;9.280;2023-03-23T15:15:26;3.17;;;2.30;;
13079;SDS011;6606;49.154;9.280;2023-03-23T15:18:14;3.88;;;2.50;;
13079;SDS011;6606;49.154;9.280;2023-03-23T15:21:18;5.32;;;2.60;;
13079;SDS011;6606;49.154;9.280;2023-03-23T15:24:18;3.58;;;2.47;;
13079;SDS011;6606;49.154;9.280;2023-03-23T15:27:14;4.30;;;2.42;;
13079;SDS011;6606;49.154;9.280;2023-03-23T15:30:10;4.40;;;2.75;;
13079;SDS011;6606;49.154;9.280;2023-03-23T15:32:59;3.83;;;2.40;;
13079;SDS011;6606;49.154;9.280;2023-03-23T15:35:45;6.07;;;2.65;;
13079;SDS011;6606;49.154;9.280;2023-03-23T15:38:29;5.32;;;2.70;;
13079;SDS011;6606;49.154;9.280;2023-03-23T15:41:22;3.80;;;2.50;;
13079;SDS011;6606;49.154;9.280;2023-03-23T15:44:09;5.50;;;2.55;;
13079;SDS011;6606;49.154;9.280;2023-03-23T15:47:01;3.40;;;2.23;;
13079;SDS011;6606;49.154;9.280;2023-03-23T15:49:46;7.13;;;2.90;;
13079;SDS011;6606;49.154;9.280;2023-03-23T15:52:39;5.53;;;2.60;;
13079;SDS011;6606;49.154;9.280;2023-03-23T15:55:22;6.15;;;2.88;;
13079;SDS011;6606;49.154;9.280;2023-03-23T15:58:08;6.30;;;3.20;;
13079;SDS011;6606;49.154;9.280;2023-03-23T16:00:52;4.68;;;2.80;;
13079;SDS011;6606;49.154;9.280;2023-03-23T16:03:38;4.30;;;2.70;;
13079;SDS011;6606;49.154;9.280;2023-03-23T16:06:23;3.28;;;2.40;;
13079;SDS011;6606;49.154;9.280;2023-03-23T16:09:06;7.50;;;3.10;;
13079;SDS011;6606;49.154;9.280;2023-03-23T16:11:50;3.17;;;2.60;;
13079;SDS011;6606;49.154;9.280;2023-03-23T16:14:32;3.30;;;2.53;;
13079;SDS011;6606;49.154;9.280;2023-03-23T16:17:15;5.38;;;3.05;;
13079;SDS011;6606;49.154;9.280;2023-03-23T16:20:01;4.43;;;2.80;;
13079;SDS011;6606;49.154;9.280;2023-03-23T16:22:43;6.10;;;3.77;;
13079;SDS011;6606;49.154;9.280;2023-03-23T16:25:25;9.27;;;4.80;;
13079;SDS011;6606;49.154;9.280;2023-03-23T16:28:08;6.53;;;3.10;;
13079;SDS011;6606;49.154;9.280;2023-03-23T16:30:51;6.28;;;3.40;;
13079;SDS011;6606;49.154;9.280;2023-03-23T16:33:33;6.85;;;4.60;;
13079;SDS011;6606;49.154;9.280;2023-03-23T16:36:16;5.40;;;4.35;;
13079;SDS011;6606;49.154;9.280;2023-03-23T16:38:58;6.18;;;3.95;;
13079;SDS011;6606;49.154;9.280;2023-03-23T16:41:40;5.63;;;4.53;;
13079;SDS011;6606;49.154;9.280;2023-03-23T16:44:22;8.45;;;4.60;;
13079;SDS011;6606;49.154;9.280;2023-03-23T16:47:04;6.43;;;4.10;;
13079;SDS011;6606;49.154;9.280;2023-03-23T16:49:46;6.77;;;4.70;;
13079;SDS011;6606;49.154;9.280;2023-03-23T16:52:30;8.98;;;5.95;;
13079;SDS011;6606;49.154;9.280;2023-03-23T16:55:14;6.53;;;4.18;;
13079;SDS011;6606;49.154;9.280;2023-03-23T16:57:57;5.85;;;3.30;;
13079;SDS011;6606;49.154;9.280;2023-03-23T17:00:39;3.47;;;3.17;;
13079;SDS011;6606;49.154;9.280;2023-03-23T17:03:24;6.00;;;3.40;;
13079;SDS011;6606;49.154;9.280;2023-03-23T17:06:06;5.53;;;3.10;;
13079;SDS011;6606;49.154;9.280;2023-03-23T17:08:50;5.73;;;3.30;;
13079;SDS011;6606;49.154;9.280;2023-03-23T17:11:31;6.27;;;3.07;;
13079;SDS011;6606;49.154;9.280;2023-03-23T17:14:13;3.23;;;2.90;;